Aérodrome :
LOGIN :

S'inscrire | Disclaimer

   EN    FR    IT 

 










Légende :    VFR   VFR Marginal   IFR   IFR Intensif   IFR Très Intensif
Visi : 
Plafond : 
>= 8 km
>= 3000ft
5 à 8 km
1000 à 3000 ft
1500m à 5 km
500 à 1000 ft
800 à 1500m
200 à 500 ft
< 800m
< 200 ft
Symboles :   Orages  Brouillard  Fortes neiges  Fortes précipitations  Vent > 20 kt
SIGMETs :   Divers  Orages  Givrage  Turbulence  Onde Orograph.  Cendres Volcan.






- Altitude de l'aérodrome : 194 ft


EBCV - Chièvres

DERNIER METAR :
  • 111955Z AUTO 21009KT 9999 NCD 05/03 Q1003 BLU

METARs EXPIRÉS :
  • 111925Z AUTO 21009KT 9999 FEW051/// SCT170/// 05/04 Q1003 BLU
  • 111855Z AUTO 21009KT 9999 NCD 05/04 Q1003 BLU
  • 111825Z AUTO 21009KT 9999 FEW032/// 05/04 Q1003 BLU
  • 111755Z AUTO 21008KT 9999 SCT036/// SCT042/// BKN057/// 05/04 Q1003 BLU
  • 111725Z AUTO 22006KT 9999 FEW044/// 05/03 Q1003 BLU

TAF TAF EBCV
Valide du 11 à 19h jusqu'au 12 à 07h UTC


111549Z 1119/1207 22010KT 9999 FEW015 SCT030
PROB30
TEMPO 1119/1121 6000 -SHRA SCT012 BKN020
BECMG 1201/1203 SCT007 BKN010
TEMPO 1203/1205 SCT005 BKN007 BY EBWM



MET'MAP, la Météo Aéronautique d'un coup d'oeil ! - Copyright ORBIFLY Décembre 2007 - Disclaimer

ORBIFLY MET'MAP TEAM :

Programmation & Développement : Alexandra Zaïnal
Conception & Développement : Baudouin d'Aumeries
Co-Programmation & Développement : Marc-Olivier Méhu
Soutien technique & logistique : Manuel Goepfert

Contact : metmap@orbifly.com




SOURCES & CREDITS :

   NOAA